createdAt,value
2023-03-07T00:01:54.269Z,58.06
2023-03-07T00:04:21.216Z,54.41
2023-03-07T00:06:48.447Z,57.53
2023-03-07T00:09:15.491Z,60.60
2023-03-07T00:11:42.445Z,65.18
2023-03-07T00:14:09.385Z,60.69
2023-03-07T00:16:36.262Z,54.12
2023-03-07T00:19:03.170Z,55.17
2023-03-07T00:21:32.476Z,58.35
2023-03-07T00:23:59.676Z,60.10
2023-03-07T00:26:27.562Z,65.74
2023-03-07T00:28:55.287Z,63.63
2023-03-07T00:31:24.454Z,56.50
2023-03-07T00:33:51.407Z,54.52
2023-03-07T00:36:21.344Z,56.42
2023-03-07T00:38:49.036Z,59.83
2023-03-07T00:41:24.460Z,65.22
2023-03-07T00:43:52.250Z,64.82
2023-03-07T00:46:20.791Z,57.17
2023-03-07T00:48:48.216Z,55.27
2023-03-07T00:51:21.287Z,57.89
2023-03-07T00:53:49.709Z,61.92
2023-03-07T00:56:19.538Z,67.80
2023-03-07T00:58:46.338Z,63.68
2023-03-07T01:01:16.148Z,56.94
2023-03-07T01:03:44.043Z,52.91
2023-03-07T01:06:16.319Z,56.15
2023-03-07T01:08:44.240Z,59.05
2023-03-07T01:11:13.307Z,61.16
2023-03-07T01:13:40.891Z,65.85
2023-03-07T01:16:15.370Z,63.85
2023-03-07T01:18:43.556Z,55.36
2023-03-07T01:21:35.952Z,54.24
2023-03-07T01:24:05.681Z,56.61
2023-03-07T01:26:34.207Z,59.84
2023-03-07T01:29:04.891Z,60.04
2023-03-07T01:31:35.322Z,67.25
2023-03-07T01:34:03.817Z,67.51
2023-03-07T01:36:35.007Z,58.67
2023-03-07T01:39:10.707Z,51.31
2023-03-07T01:41:41.037Z,53.19
2023-03-07T01:44:21.288Z,56.03
2023-03-07T01:46:56.273Z,56.76
2023-03-07T01:49:46.434Z,60.34
2023-03-07T01:52:19.583Z,66.60
2023-03-07T01:54:58.609Z,66.06
2023-03-07T01:57:32.097Z,54.13
2023-03-07T02:00:01.858Z,52.76
2023-03-07T02:02:29.595Z,54.50
2023-03-07T02:05:10.298Z,57.00
2023-03-07T02:07:49.745Z,58.80
2023-03-07T02:10:22.165Z,66.70
2023-03-07T02:12:50.790Z,67.54
2023-03-07T02:15:18.007Z,61.30
2023-03-07T02:17:45.736Z,53.36
2023-03-07T02:20:21.842Z,52.23
2023-03-07T02:22:50.094Z,54.29
2023-03-07T02:25:29.924Z,57.01
2023-03-07T02:27:59.246Z,60.31
2023-03-07T02:30:26.908Z,67.01
2023-03-07T02:32:54.151Z,67.22
2023-03-07T02:35:24.766Z,60.86
2023-03-07T02:38:03.456Z,52.08
2023-03-07T02:40:32.318Z,52.85
2023-03-07T02:43:09.822Z,55.25
2023-03-07T02:45:38.248Z,60.00
2023-03-07T02:48:05.422Z,65.80
2023-03-07T02:50:32.570Z,63.27
2023-03-07T02:52:59.457Z,54.37
2023-03-07T02:55:26.364Z,53.27
2023-03-07T02:57:57.937Z,55.10
2023-03-07T03:00:25.062Z,56.92
2023-03-07T03:02:52.115Z,58.50
2023-03-07T03:05:19.958Z,61.86
2023-03-07T03:07:46.744Z,69.21
2023-03-07T03:10:13.592Z,66.38
2023-03-07T03:12:41.342Z,54.28
2023-03-07T03:15:09.921Z,52.03
2023-03-07T03:17:37.282Z,56.07
2023-03-07T03:20:07.770Z,56.90
2023-03-07T03:22:36.013Z,60.20
2023-03-07T03:25:05.219Z,67.59
2023-03-07T03:27:33.209Z,66.46
2023-03-07T03:30:00.330Z,55.25
2023-03-07T03:32:27.328Z,52.81
2023-03-07T03:34:54.124Z,54.56
2023-03-07T03:37:21.106Z,57.14
2023-03-07T03:39:48.197Z,60.92
2023-03-07T03:42:15.087Z,67.73
2023-03-07T03:44:42.011Z,63.24
2023-03-07T03:47:08.840Z,54.12
2023-03-07T03:49:41.264Z,54.09
2023-03-07T03:52:09.608Z,55.98
2023-03-07T03:54:36.890Z,57.75
2023-03-07T03:57:04.038Z,59.29
2023-03-07T03:59:31.156Z,66.56
2023-03-07T04:01:58.336Z,67.10
2023-03-07T04:04:25.268Z,57.55
2023-03-07T04:06:52.237Z,53.47
2023-03-07T04:09:19.329Z,56.68
2023-03-07T04:11:47.619Z,60.28
2023-03-07T04:14:14.505Z,67.18
2023-03-07T04:16:41.351Z,66.46
2023-03-07T04:19:13.110Z,56.47
2023-03-07T04:21:42.102Z,52.51
2023-03-07T04:24:09.473Z,55.12
2023-03-07T04:26:36.876Z,58.27
2023-03-07T04:29:04.532Z,61.41
2023-03-07T04:31:51.756Z,68.95
2023-03-07T04:34:18.626Z,63.69
2023-03-07T04:36:45.611Z,52.91
2023-03-07T04:39:13.461Z,53.33
2023-03-07T04:41:40.679Z,56.30
2023-03-07T04:44:27.829Z,60.37
2023-03-07T04:46:54.670Z,65.94
2023-03-07T04:49:21.572Z,66.14
2023-03-07T04:51:48.615Z,55.46
2023-03-07T04:54:16.685Z,51.71
2023-03-07T04:56:45.615Z,54.38
2023-03-07T04:59:12.521Z,61.52
2023-03-07T05:01:40.100Z,66.70
2023-03-07T05:04:07.189Z,60.12
2023-03-07T05:06:34.258Z,52.50
2023-03-07T05:09:01.547Z,53.64
2023-03-07T05:11:28.833Z,58.13
2023-03-07T05:13:55.889Z,62.35
2023-03-07T05:16:23.310Z,68.48
2023-03-07T05:18:50.314Z,61.51
2023-03-07T05:21:17.610Z,53.09
2023-03-07T05:23:44.939Z,53.76
2023-03-07T05:26:12.817Z,55.94
2023-03-07T05:28:39.666Z,59.43
2023-03-07T05:31:06.906Z,61.18
2023-03-07T05:33:34.174Z,69.58
2023-03-07T05:36:02.433Z,66.72
2023-03-07T05:38:29.914Z,56.45
2023-03-07T05:40:56.792Z,53.00
2023-03-07T05:43:23.706Z,55.61
2023-03-07T05:45:51.781Z,58.69
2023-03-07T05:48:18.991Z,59.61
2023-03-07T05:50:46.145Z,59.97
2023-03-07T05:53:13.627Z,60.65
2023-03-07T05:55:40.579Z,63.83
2023-03-07T05:58:07.763Z,64.62
2023-03-07T06:00:34.646Z,52.90
2023-03-07T06:03:03.469Z,52.27
2023-03-07T06:05:30.900Z,55.31
2023-03-07T06:07:57.914Z,58.36
2023-03-07T06:10:25.913Z,61.72
2023-03-07T06:12:53.936Z,67.31
2023-03-07T06:15:23.738Z,58.07
2023-03-07T06:17:54.129Z,53.15
2023-03-07T06:20:21.429Z,56.93
2023-03-07T06:22:49.305Z,60.16
2023-03-07T06:25:17.116Z,66.18
2023-03-07T06:27:44.430Z,62.86
2023-03-07T06:30:12.819Z,52.75
2023-03-07T06:32:40.032Z,52.96
2023-03-07T06:35:07.628Z,56.28
2023-03-07T06:37:34.681Z,58.45
2023-03-07T06:40:06.363Z,60.96
2023-03-07T06:42:34.110Z,65.42
2023-03-07T06:45:02.223Z,62.03
2023-03-07T06:47:29.198Z,51.75
2023-03-07T06:49:56.135Z,52.18
2023-03-07T06:52:23.034Z,55.10
2023-03-07T06:54:49.953Z,58.18
2023-03-07T06:57:16.967Z,60.70
2023-03-07T06:59:44.029Z,63.28
2023-03-07T07:02:14.689Z,61.76
2023-03-07T07:04:41.736Z,53.19
2023-03-07T07:07:08.876Z,53.45
2023-03-07T07:09:35.910Z,56.54
2023-03-07T07:12:03.226Z,59.13
2023-03-07T07:14:30.287Z,60.80
2023-03-07T07:16:57.304Z,62.37
2023-03-07T07:19:26.689Z,63.16
2023-03-07T07:21:54.252Z,53.05
2023-03-07T07:24:21.808Z,51.34
2023-03-07T07:26:48.862Z,52.95
2023-03-07T07:29:16.177Z,53.89
2023-03-07T07:31:43.398Z,53.56
2023-03-07T07:34:10.980Z,50.50
2023-03-07T07:36:38.166Z,47.68
2023-03-07T07:39:05.930Z,45.25
2023-03-07T07:41:34.547Z,41.01
2023-03-07T07:44:01.517Z,39.75
2023-03-07T07:46:35.319Z,39.89
2023-03-07T07:49:03.658Z,39.65
2023-03-07T07:51:31.474Z,39.99
2023-03-07T07:53:58.370Z,37.30
2023-03-07T07:56:25.572Z,35.87
2023-03-07T07:58:52.908Z,35.74
2023-03-07T08:01:22.527Z,35.05
2023-03-07T08:03:49.955Z,33.95
2023-03-07T08:06:26.697Z,34.14
2023-03-07T08:08:54.512Z,35.34
2023-03-07T08:11:23.148Z,37.18
2023-03-07T08:13:50.276Z,38.91
2023-03-07T08:16:22.708Z,38.59
2023-03-07T08:18:52.080Z,37.20
2023-03-07T08:21:19.705Z,36.11
2023-03-07T08:23:46.763Z,35.17
2023-03-07T08:26:13.923Z,34.65
2023-03-07T08:28:42.362Z,33.98
2023-03-07T08:31:11.703Z,34.53
2023-03-07T08:33:39.059Z,35.59
2023-03-07T08:36:06.909Z,36.29
2023-03-07T08:38:34.200Z,36.30
2023-03-07T08:41:06.175Z,36.27
2023-03-07T08:43:34.810Z,36.53
2023-03-07T08:46:01.819Z,34.90
2023-03-07T08:48:29.224Z,33.98
2023-03-07T08:50:56.546Z,33.86
2023-03-07T08:53:23.921Z,34.09
2023-03-07T08:55:51.068Z,35.15
2023-03-07T08:58:18.061Z,37.16
2023-03-07T09:00:45.024Z,39.18
2023-03-07T09:03:12.057Z,40.90
2023-03-07T09:05:39.280Z,40.77
2023-03-07T09:08:08.142Z,40.79
2023-03-07T09:10:35.912Z,42.64
2023-03-07T09:13:03.416Z,44.30
2023-03-07T09:15:30.227Z,45.97
2023-03-07T09:17:57.191Z,47.60
2023-03-07T09:20:25.060Z,48.70
2023-03-07T09:22:53.817Z,48.69
2023-03-07T09:25:20.879Z,46.99
2023-03-07T09:27:47.876Z,43.35
2023-03-07T09:30:15.099Z,40.50
2023-03-07T09:32:42.902Z,38.02
2023-03-07T09:35:10.591Z,35.90
2023-03-07T09:37:38.435Z,35.19
2023-03-07T09:40:09.400Z,35.20
2023-03-07T09:42:36.699Z,37.26
2023-03-07T09:45:29.306Z,39.97
2023-03-07T09:48:10.585Z,43.05
2023-03-07T09:50:53.818Z,46.05
2023-03-07T09:53:38.285Z,48.36
2023-03-07T09:56:50.405Z,50.90
2023-03-07T09:59:25.462Z,52.50
2023-03-07T10:02:01.423Z,54.30
2023-03-07T10:04:40.952Z,56.49
2023-03-07T10:07:10.345Z,57.75
2023-03-07T10:09:37.669Z,59.32
2023-03-07T10:12:33.647Z,60.97
2023-03-07T10:15:28.699Z,62.22
2023-03-07T10:17:58.308Z,54.82
2023-03-07T10:20:49.494Z,55.19
2023-03-07T10:23:55.165Z,57.40
2023-03-07T10:26:33.200Z,59.74
2023-03-07T10:29:09.747Z,59.48
2023-03-07T10:31:41.245Z,58.32
2023-03-07T10:34:32.030Z,56.36
2023-03-07T10:37:18.901Z,54.28
2023-03-07T10:39:56.606Z,52.33
2023-03-07T10:42:26.723Z,50.36
2023-03-07T10:44:54.062Z,51.17
2023-03-07T10:47:25.297Z,52.30
2023-03-07T10:50:07.001Z,53.47
2023-03-07T10:52:47.321Z,55.04
2023-03-07T10:55:35.240Z,56.64
2023-03-07T10:58:29.839Z,58.61
2023-03-07T11:01:00.092Z,60.28
2023-03-07T11:03:55.223Z,61.87
2023-03-07T11:06:36.862Z,62.40
2023-03-07T11:09:13.104Z,53.02
2023-03-07T11:11:40.155Z,54.95
2023-03-07T11:14:15.705Z,58.01
2023-03-07T11:16:50.860Z,57.53
2023-03-07T11:19:32.669Z,56.66
2023-03-07T11:22:01.693Z,56.68
2023-03-07T11:24:31.555Z,57.60
2023-03-07T11:27:00.186Z,57.32
2023-03-07T11:29:33.845Z,56.44
2023-03-07T11:32:14.342Z,56.02
2023-03-07T11:34:46.293Z,55.14
2023-03-07T11:37:28.348Z,56.44
2023-03-07T11:40:20.450Z,57.59
2023-03-07T11:43:14.793Z,56.44
2023-03-07T11:46:03.926Z,56.08
2023-03-07T11:48:56.611Z,56.35
2023-03-07T11:51:45.327Z,56.62
2023-03-07T11:54:18.825Z,55.14
2023-03-07T11:56:51.792Z,53.00
2023-03-07T11:59:40.734Z,52.19
2023-03-07T12:02:43.009Z,50.98
2023-03-07T12:05:16.081Z,49.81
2023-03-07T12:07:46.067Z,48.20
2023-03-07T12:10:29.599Z,46.47
2023-03-07T12:13:20.490Z,45.64
2023-03-07T12:16:28.806Z,46.70
2023-03-07T12:18:56.856Z,49.18
2023-03-07T12:21:36.044Z,50.28
2023-03-07T12:24:18.929Z,50.14
2023-03-07T12:26:56.477Z,49.13
2023-03-07T12:29:42.021Z,47.73
2023-03-07T12:32:21.633Z,47.69
2023-03-07T12:34:59.610Z,48.12
2023-03-07T12:37:56.111Z,48.60
2023-03-07T12:40:49.908Z,49.17
2023-03-07T12:43:21.611Z,49.52
2023-03-07T12:46:02.216Z,50.99
2023-03-07T12:48:46.566Z,52.52
2023-03-07T12:51:31.637Z,53.31
2023-03-07T12:54:27.177Z,53.53
2023-03-07T12:57:09.275Z,54.56
2023-03-07T12:59:40.658Z,55.74
2023-03-07T13:02:30.399Z,56.88
2023-03-07T13:05:00.165Z,58.07
2023-03-07T13:07:33.910Z,58.77
2023-03-07T13:10:06.488Z,58.92
2023-03-07T13:12:36.169Z,59.82
2023-03-07T13:15:26.165Z,60.07
2023-03-07T13:17:57.296Z,60.21
2023-03-07T13:20:27.516Z,60.50
2023-03-07T13:22:54.703Z,61.44
2023-03-07T13:25:28.068Z,61.52
2023-03-07T13:28:04.963Z,61.78
2023-03-07T13:30:33.628Z,62.21
2023-03-07T13:33:03.247Z,55.47
2023-03-07T13:35:39.147Z,52.01
2023-03-07T13:38:15.558Z,53.91
2023-03-07T13:40:46.612Z,55.64
2023-03-07T13:43:19.800Z,56.85
2023-03-07T13:46:05.333Z,57.52
2023-03-07T13:48:32.890Z,58.24
2023-03-07T13:51:03.363Z,59.28
2023-03-07T13:54:00.842Z,60.16
2023-03-07T13:56:35.358Z,61.36
2023-03-07T13:59:32.241Z,62.43
2023-03-07T14:02:02.002Z,58.92
2023-03-07T14:04:45.438Z,54.13
2023-03-07T14:07:32.017Z,55.93
2023-03-07T14:10:22.310Z,59.06
2023-03-07T14:13:11.725Z,61.67
2023-03-07T14:15:47.615Z,62.05
2023-03-07T14:18:36.553Z,54.18
2023-03-07T14:21:34.992Z,54.60
2023-03-07T14:24:28.625Z,57.72
2023-03-07T14:27:03.224Z,59.99
2023-03-07T14:29:31.099Z,61.44
2023-03-07T14:32:01.181Z,62.58
2023-03-07T14:34:28.309Z,58.55
2023-03-07T14:37:04.826Z,54.57
2023-03-07T14:39:59.782Z,56.55
2023-03-07T14:42:42.518Z,59.23
2023-03-07T14:45:34.529Z,61.42
2023-03-07T14:48:08.311Z,62.56
2023-03-07T14:50:40.019Z,55.85
2023-03-07T14:53:25.886Z,54.26
2023-03-07T14:55:54.667Z,57.52
2023-03-07T14:58:25.776Z,59.83
2023-03-07T15:01:07.078Z,61.61
2023-03-07T15:03:34.406Z,62.63
2023-03-07T15:06:03.549Z,58.25
2023-03-07T15:08:38.544Z,54.19
2023-03-07T15:11:28.591Z,56.04
2023-03-07T15:13:58.192Z,58.26
2023-03-07T15:16:31.130Z,59.40
2023-03-07T15:19:19.554Z,60.62
2023-03-07T15:21:51.200Z,61.63
2023-03-07T15:24:29.929Z,62.71
2023-03-07T15:26:59.199Z,59.68
2023-03-07T15:29:29.424Z,53.40
2023-03-07T15:32:07.429Z,54.23
2023-03-07T15:34:38.947Z,56.06
2023-03-07T15:37:28.875Z,57.64
2023-03-07T15:39:59.942Z,58.53
2023-03-07T15:42:28.262Z,59.37
2023-03-07T15:45:02.547Z,60.03
2023-03-07T15:47:32.887Z,60.31
2023-03-07T15:50:07.480Z,60.66
2023-03-07T15:52:39.982Z,60.72
2023-03-07T15:55:18.783Z,60.79
2023-03-07T15:57:56.447Z,60.83
2023-03-07T16:00:39.822Z,61.28
2023-03-07T16:03:28.283Z,61.31
2023-03-07T16:05:57.301Z,60.86
2023-03-07T16:08:24.592Z,60.82
2023-03-07T16:10:57.719Z,61.16
2023-03-07T16:13:30.876Z,61.16
2023-03-07T16:16:00.473Z,61.20
2023-03-07T16:18:29.972Z,61.36
2023-03-07T16:20:57.832Z,61.56
2023-03-07T16:23:25.567Z,61.69
2023-03-07T16:25:52.678Z,61.69
2023-03-07T16:28:19.717Z,61.94
2023-03-07T16:30:47.019Z,61.90
2023-03-07T16:33:15.231Z,61.83
2023-03-07T16:35:42.373Z,62.17
2023-03-07T16:38:09.780Z,62.03
2023-03-07T16:40:42.709Z,61.64
2023-03-07T16:43:42.710Z,61.85
2023-03-07T16:46:16.818Z,61.73
2023-03-07T16:48:44.991Z,61.64
2023-03-07T16:51:19.071Z,61.74
2023-03-07T16:53:47.661Z,61.72
2023-03-07T16:56:25.276Z,61.54
2023-03-07T16:58:53.188Z,61.62
2023-03-07T17:01:20.467Z,61.87
2023-03-07T17:03:47.783Z,61.83
2023-03-07T17:06:16.745Z,61.75
2023-03-07T17:08:45.210Z,61.89
2023-03-07T17:11:20.073Z,62.17
2023-03-07T17:13:48.952Z,62.11
2023-03-07T17:16:17.572Z,62.36
2023-03-07T17:18:45.490Z,62.10
2023-03-07T17:21:17.777Z,62.11
2023-03-07T17:23:45.654Z,62.05
2023-03-07T17:26:27.209Z,61.94
2023-03-07T17:28:55.215Z,62.00
2023-03-07T17:31:22.274Z,61.84
2023-03-07T17:33:50.060Z,61.89
2023-03-07T17:36:17.439Z,62.02
2023-03-07T17:38:44.502Z,61.73
2023-03-07T17:41:11.551Z,61.83
2023-03-07T17:43:38.573Z,61.83
2023-03-07T17:46:10.308Z,61.76
2023-03-07T17:48:38.442Z,61.72
2023-03-07T17:51:10.030Z,61.67
2023-03-07T17:53:38.811Z,61.56
2023-03-07T17:56:10.740Z,61.53
2023-03-07T17:58:39.140Z,61.71
2023-03-07T18:01:08.538Z,61.76
2023-03-07T18:03:35.554Z,61.62
2023-03-07T18:06:03.271Z,61.77
2023-03-07T18:08:31.028Z,61.88
2023-03-07T18:11:06.278Z,61.85
2023-03-07T18:13:33.588Z,61.89
2023-03-07T18:16:01.165Z,61.92
2023-03-07T18:18:33.421Z,61.89
2023-03-07T18:21:07.078Z,61.84
2023-03-07T18:23:35.363Z,61.92
2023-03-07T18:26:08.572Z,62.03
2023-03-07T18:28:39.486Z,62.22
2023-03-07T18:31:09.255Z,62.35
2023-03-07T18:33:36.666Z,62.12
2023-03-07T18:36:05.526Z,54.62
2023-03-07T18:38:33.158Z,52.85
2023-03-07T18:41:04.792Z,54.85
2023-03-07T18:43:32.038Z,56.70
2023-03-07T18:45:59.714Z,58.20
2023-03-07T18:48:26.819Z,59.30
2023-03-07T18:51:02.390Z,60.11
2023-03-07T18:53:29.994Z,60.92
2023-03-07T18:55:57.539Z,61.19
2023-03-07T18:58:24.725Z,61.70
2023-03-07T19:00:51.941Z,61.87
2023-03-07T19:03:19.197Z,62.56
2023-03-07T19:05:49.163Z,60.57
2023-03-07T19:08:17.339Z,51.68
2023-03-07T19:10:47.317Z,52.46
2023-03-07T19:13:14.336Z,54.51
2023-03-07T19:15:41.918Z,56.37
2023-03-07T19:18:09.507Z,58.19
2023-03-07T19:20:40.535Z,59.25
2023-03-07T19:23:07.598Z,60.14
2023-03-07T19:25:35.756Z,60.97
2023-03-07T19:28:03.253Z,61.35
2023-03-07T19:30:33.115Z,61.75
2023-03-07T19:33:00.569Z,62.15
2023-03-07T19:35:27.527Z,62.21
2023-03-07T19:37:54.746Z,62.66
2023-03-07T19:40:24.136Z,57.27
2023-03-07T19:42:51.231Z,54.45
2023-03-07T19:45:18.357Z,56.24
2023-03-07T19:47:45.643Z,58.32
2023-03-07T19:50:12.774Z,59.44
2023-03-07T19:52:39.758Z,60.67
2023-03-07T19:55:07.256Z,61.57
2023-03-07T19:57:36.099Z,62.56
2023-03-07T20:00:04.815Z,59.91
2023-03-07T20:02:38.660Z,54.23
2023-03-07T20:05:06.145Z,55.52
2023-03-07T20:07:33.302Z,57.84
2023-03-07T20:10:00.184Z,60.53
2023-03-07T20:12:27.052Z,63.06
2023-03-07T20:14:53.915Z,59.47
2023-03-07T20:17:21.010Z,55.02
2023-03-07T20:19:50.903Z,57.37
2023-03-07T20:22:18.152Z,60.71
2023-03-07T20:24:45.203Z,64.68
2023-03-07T20:27:12.283Z,57.92
2023-03-07T20:29:39.212Z,55.19
2023-03-07T20:32:06.208Z,59.70
2023-03-07T20:34:33.555Z,62.99
2023-03-07T20:37:00.613Z,57.79
2023-03-07T20:39:27.712Z,56.33
2023-03-07T20:41:54.682Z,60.84
2023-03-07T20:44:21.746Z,64.14
2023-03-07T20:46:48.899Z,59.84
2023-03-07T20:49:16.444Z,55.48
2023-03-07T20:51:44.427Z,59.68
2023-03-07T20:54:15.055Z,64.38
2023-03-07T20:56:42.598Z,59.96
2023-03-07T20:59:13.442Z,55.92
2023-03-07T21:01:40.679Z,60.47
2023-03-07T21:04:13.142Z,64.04
2023-03-07T21:06:42.935Z,58.79
2023-03-07T21:09:14.854Z,56.73
2023-03-07T21:11:47.752Z,61.13
2023-03-07T21:14:15.878Z,63.49
2023-03-07T21:16:46.288Z,57.62
2023-03-07T21:19:13.715Z,58.12
2023-03-07T21:21:40.942Z,62.77
2023-03-07T21:24:08.755Z,63.59
2023-03-07T21:26:36.682Z,57.33
2023-03-07T21:29:05.033Z,58.94
2023-03-07T21:31:35.130Z,63.47
2023-03-07T21:34:05.126Z,63.65
2023-03-07T21:36:31.959Z,56.14
2023-03-07T21:39:00.147Z,58.79
2023-03-07T21:41:29.318Z,63.38
2023-03-07T21:43:58.118Z,60.85
2023-03-07T21:46:26.428Z,56.59
2023-03-07T21:48:53.972Z,59.91
2023-03-07T21:51:22.513Z,64.07
2023-03-07T21:53:49.536Z,58.40
2023-03-07T21:56:17.649Z,55.27
2023-03-07T21:58:48.826Z,59.10
2023-03-07T22:01:19.221Z,63.33
2023-03-07T22:03:46.592Z,62.83
2023-03-07T22:06:16.434Z,55.90
2023-03-07T22:08:43.992Z,56.70
2023-03-07T22:11:13.067Z,61.08
2023-03-07T22:13:41.997Z,64.35
2023-03-07T22:16:13.209Z,58.06
2023-03-07T22:18:40.577Z,55.52
2023-03-07T22:21:14.274Z,59.07
2023-03-07T22:23:42.395Z,62.64
2023-03-07T22:26:11.195Z,64.03
2023-03-07T22:28:38.592Z,56.03
2023-03-07T22:31:09.639Z,56.22
2023-03-07T22:33:36.809Z,59.97
2023-03-07T22:36:06.793Z,63.47
2023-03-07T22:38:34.167Z,61.24
2023-03-07T22:41:06.139Z,54.43
2023-03-07T22:43:35.635Z,55.27
2023-03-07T22:46:03.551Z,59.32
2023-03-07T22:48:31.172Z,62.35
2023-03-07T22:51:04.340Z,64.12
2023-03-07T22:53:35.687Z,57.91
2023-03-07T22:56:03.075Z,58.01
2023-03-07T22:58:30.685Z,61.94
2023-03-07T23:00:57.839Z,61.47
2023-03-07T23:03:24.988Z,56.29
2023-03-07T23:05:51.942Z,60.29
2023-03-07T23:08:18.777Z,63.03
2023-03-07T23:10:45.870Z,58.30
2023-03-07T23:13:12.923Z,57.46
2023-03-07T23:15:41.614Z,60.61
2023-03-07T23:18:09.168Z,64.58
2023-03-07T23:20:37.864Z,61.45
2023-03-07T23:23:05.076Z,54.76
2023-03-07T23:25:33.393Z,56.08
2023-03-07T23:28:00.602Z,58.20
2023-03-07T23:30:27.817Z,61.22
2023-03-07T23:32:55.513Z,64.31
2023-03-07T23:35:24.009Z,58.32
2023-03-07T23:37:50.874Z,55.73
2023-03-07T23:40:18.019Z,59.53
2023-03-07T23:42:44.934Z,63.55
2023-03-07T23:45:11.827Z,63.40
2023-03-07T23:47:39.802Z,56.07
2023-03-07T23:50:08.162Z,57.10
2023-03-07T23:52:35.182Z,60.98
2023-03-07T23:55:02.158Z,64.92
2023-03-07T23:57:29.022Z,59.92
2023-03-07T23:59:55.981Z,55.26
